Time,TemperatureF,DewpointF,PressureIn,WindDirection,WindDirectionDegrees,WindSpeedMPH,WindSpeedGustMPH,Humidity,HourlyPrecipIn,Conditions,Clouds,dailyrainin,SolarRadiationWatts/m^2,SoftwareType,DateUTC
2013-05-04 00:11:00,50.0,43.0,-100.00,SSE,159,2.0,3.0,75,-99.99,,,0.00,0.000000,,2013-05-04 07:11:00,
2013-05-04 01:11:00,49.0,42.0,-100.00,South,189,1.0,2.0,77,-99.99,,,-99.99,0.000000,,2013-05-04 08:11:00,
2013-05-04 02:11:00,45.0,42.0,-100.00,SSE,160,2.0,3.0,87,-99.99,,,0.00,0.000000,,2013-05-04 09:11:00,
2013-05-04 03:12:00,42.0,40.0,-100.00,SSE,158,2.0,2.0,92,-99.99,,,0.00,0.000000,,2013-05-04 10:12:00,
2013-05-04 04:11:00,42.0,40.0,-100.00,SE,141,2.0,5.0,91,-99.99,,,0.00,0.000000,,2013-05-04 11:11:00,
2013-05-04 05:13:00,42.0,40.0,-100.00,SSE,156,1.0,3.0,92,-99.99,,,0.00,0.000000,,2013-05-04 12:13:00,
2013-05-04 06:11:00,40.0,39.0,-100.00,South,177,2.0,5.0,94,-99.99,,,0.00,0.000000,,2013-05-04 13:11:00,
2013-05-04 07:11:00,42.0,39.0,-100.00,South,169,2.0,5.0,91,-99.99,,,0.00,11.970000,,2013-05-04 14:11:00,
2013-05-04 08:11:00,47.0,41.0,-100.00,SSE,153,2.0,5.0,82,-99.99,,,0.00,69.959999,,2013-05-04 15:11:00,
2013-05-04 09:12:00,57.0,43.0,-100.00,NW,324,2.0,5.0,59,-99.99,,,0.00,281.369995,,2013-05-04 16:12:00,
2013-05-04 10:12:00,64.0,44.0,-100.00,NNW,341,3.0,5.0,47,-99.99,,,0.00,474.869995,,2013-05-04 17:12:00,
2013-05-04 12:11:00,73.0,37.0,-100.00,East,94,7.0,14.0,26,-99.99,,,0.00,807.380005,,2013-05-04 19:11:00,
2013-05-04 13:11:00,75.0,33.0,-100.00,East,90,7.0,24.0,21,-99.99,,,0.00,889.080017,,2013-05-04 20:11:00,
2013-05-04 14:11:00,77.0,32.0,-100.00,East,81,8.0,20.0,19,-99.99,,,0.00,910.000000,,2013-05-04 21:11:00,
2013-05-04 15:12:00,78.0,31.0,-100.00,ENE,62,7.0,25.0,18,-99.99,,,0.00,877.460022,,2013-05-04 22:12:00,
2013-05-04 16:11:00,79.0,32.0,-100.00,ENE,72,6.0,19.0,18,-99.99,,,-99.99,795.530029,,2013-05-04 23:11:00,
2013-05-04 17:11:00,79.0,29.0,-100.00,NE,41,6.0,18.0,16,-99.99,,,-99.99,661.869995,,2013-05-05 00:11:00,
2013-05-04 18:11:00,79.0,28.0,-100.00,NE,50,8.0,20.0,15,-99.99,,,0.00,495.209991,,2013-05-05 01:11:00,
2013-05-04 19:11:00,78.0,27.0,-100.00,ENE,76,7.0,18.0,15,-99.99,,,0.00,315.890015,,2013-05-05 02:11:00,
2013-05-04 20:11:00,77.0,26.0,-100.00,ENE,62,6.0,15.0,15,-99.99,,,0.00,139.229996,,2013-05-05 03:11:00,
2013-05-04 21:12:00,75.0,26.0,-100.00,ENE,57,6.0,18.0,16,-99.99,,,0.00,11.390000,,2013-05-05 04:12:00,
2013-05-04 22:12:00,73.0,26.0,-100.00,NE,53,5.0,12.0,17,-99.99,,,0.00,0.000000,,2013-05-05 05:12:00,
2013-05-04 23:12:00,71.0,27.0,-100.00,ENE,68,3.0,9.0,19,-99.99,,,0.00,0.000000,,2013-05-05 06:12:00,